sensor_id;sensor_type;location;lat;lon;timestamp;pressure;altitude;pressure_sealevel;temperature;humidity
38289;BME280;24092;53.370;-6.588;2023-04-22T00:01:40;100313.20;;;1.71;100.00
38289;BME280;24092;53.370;-6.588;2023-04-22T00:04:07;100312.58;;;1.23;100.00
38289;BME280;24092;53.370;-6.588;2023-04-22T00:06:35;100304.55;;;1.75;100.00
38289;BME280;24092;53.370;-6.588;2023-04-22T00:09:02;100303.27;;;1.43;100.00
38289;BME280;24092;53.370;-6.588;2023-04-22T00:11:29;100299.40;;;2.02;100.00
38289;BME280;24092;53.370;-6.588;2023-04-22T00:13:57;100299.46;;;2.55;100.00
38289;BME280;24092;53.370;-6.588;2023-04-22T00:16:24;100291.72;;;2.64;100.00
38289;BME280;24092;53.370;-6.588;2023-04-22T00:18:52;100288.41;;;1.71;100.00
38289;BME280;24092;53.370;-6.588;2023-04-22T00:21:19;100285.76;;;1.81;100.00
38289;BME280;24092;53.370;-6.588;2023-04-22T00:23:46;100283.19;;;2.15;100.00
38289;BME280;24092;53.370;-6.588;2023-04-22T00:26:13;100283.10;;;1.86;100.00
38289;BME280;24092;53.370;-6.588;2023-04-22T00:28:40;100281.35;;;2.18;100.00
38289;BME280;24092;53.370;-6.588;2023-04-22T00:31:07;100273.67;;;2.76;100.00
38289;BME280;24092;53.370;-6.588;2023-04-22T00:33:34;100272.15;;;2.66;100.00
38289;BME280;24092;53.370;-6.588;2023-04-22T00:36:02;100271.11;;;1.86;100.00
38289;BME280;24092;53.370;-6.588;2023-04-22T00:38:29;100262.02;;;1.64;100.00
38289;BME280;24092;53.370;-6.588;2023-04-22T00:40:57;100251.97;;;1.74;100.00
38289;BME280;24092;53.370;-6.588;2023-04-22T00:43:24;100248.66;;;1.80;100.00
38289;BME280;24092;53.370;-6.588;2023-04-22T00:45:53;100240.52;;;2.29;100.00
38289;BME280;24092;53.370;-6.588;2023-04-22T00:48:23;100236.36;;;1.76;100.00
38289;BME280;24092;53.370;-6.588;2023-04-22T00:50:50;100233.85;;;2.02;100.00
38289;BME280;24092;53.370;-6.588;2023-04-22T00:53:17;100235.59;;;2.00;100.00
38289;BME280;24092;53.370;-6.588;2023-04-22T00:55:44;100234.43;;;1.64;100.00
38289;BME280;24092;53.370;-6.588;2023-04-22T00:58:12;100231.04;;;2.90;100.00
38289;BME280;24092;53.370;-6.588;2023-04-22T01:00:39;100238.16;;;1.65;100.00
38289;BME280;24092;53.370;-6.588;2023-04-22T01:03:06;100232.89;;;1.31;100.00
38289;BME280;24092;53.370;-6.588;2023-04-22T01:05:33;100227.53;;;1.57;100.00
38289;BME280;24092;53.370;-6.588;2023-04-22T01:08:01;100231.76;;;1.74;100.00
38289;BME280;24092;53.370;-6.588;2023-04-22T01:10:28;100230.11;;;1.19;100.00
38289;BME280;24092;53.370;-6.588;2023-04-22T01:12:56;100226.92;;;1.33;100.00
38289;BME280;24092;53.370;-6.588;2023-04-22T01:15:23;100222.78;;;1.17;100.00
38289;BME280;24092;53.370;-6.588;2023-04-22T01:17:50;100220.55;;;1.55;100.00
38289;BME280;24092;53.370;-6.588;2023-04-22T01:20:20;100214.95;;;1.56;100.00
38289;BME280;24092;53.370;-6.588;2023-04-22T01:22:49;100215.28;;;1.02;100.00
38289;BME280;24092;53.370;-6.588;2023-04-22T01:25:20;100213.38;;;1.13;100.00
38289;BME280;24092;53.370;-6.588;2023-04-22T01:27:47;100205.48;;;1.93;100.00
38289;BME280;24092;53.370;-6.588;2023-04-22T01:30:16;100201.01;;;1.73;100.00
38289;BME280;24092;53.370;-6.588;2023-04-22T01:32:43;100198.61;;;1.93;100.00
38289;BME280;24092;53.370;-6.588;2023-04-22T01:35:11;100192.14;;;1.87;100.00
38289;BME280;24092;53.370;-6.588;2023-04-22T01:37:38;100191.15;;;1.91;100.00
38289;BME280;24092;53.370;-6.588;2023-04-22T01:40:08;100183.54;;;1.75;100.00
38289;BME280;24092;53.370;-6.588;2023-04-22T01:42:35;100177.97;;;1.81;100.00
38289;BME280;24092;53.370;-6.588;2023-04-22T01:45:03;100175.45;;;2.73;100.00
38289;BME280;24092;53.370;-6.588;2023-04-22T01:47:31;100176.95;;;1.38;100.00
38289;BME280;24092;53.370;-6.588;2023-04-22T01:49:58;100178.61;;;1.69;100.00
38289;BME280;24092;53.370;-6.588;2023-04-22T01:52:26;100175.47;;;2.37;100.00
38289;BME280;24092;53.370;-6.588;2023-04-22T01:54:53;100181.13;;;2.19;100.00
38289;BME280;24092;53.370;-6.588;2023-04-22T01:57:20;100179.48;;;2.37;100.00
38289;BME280;24092;53.370;-6.588;2023-04-22T01:59:47;100182.69;;;1.38;100.00
38289;BME280;24092;53.370;-6.588;2023-04-22T02:02:15;100181.24;;;2.88;100.00
38289;BME280;24092;53.370;-6.588;2023-04-22T02:04:42;100175.04;;;1.98;100.00
38289;BME280;24092;53.370;-6.588;2023-04-22T02:07:09;100175.75;;;2.04;100.00
38289;BME280;24092;53.370;-6.588;2023-04-22T02:09:36;100171.21;;;2.26;100.00
38289;BME280;24092;53.370;-6.588;2023-04-22T02:12:04;100169.93;;;2.64;100.00
38289;BME280;24092;53.370;-6.588;2023-04-22T02:14:31;100170.25;;;1.95;100.00
38289;BME280;24092;53.370;-6.588;2023-04-22T02:16:59;100166.83;;;2.77;100.00
38289;BME280;24092;53.370;-6.588;2023-04-22T02:19:25;100164.42;;;1.56;100.00
38289;BME280;24092;53.370;-6.588;2023-04-22T02:21:53;100165.66;;;2.06;100.00
38289;BME280;24092;53.370;-6.588;2023-04-22T02:24:20;100156.30;;;3.38;100.00
38289;BME280;24092;53.370;-6.588;2023-04-22T02:26:47;100155.22;;;3.47;100.00
38289;BME280;24092;53.370;-6.588;2023-04-22T02:29:14;100154.22;;;1.74;100.00
38289;BME280;24092;53.370;-6.588;2023-04-22T02:31:41;100148.92;;;2.98;100.00
38289;BME280;24092;53.370;-6.588;2023-04-22T02:34:09;100151.57;;;2.16;100.00
38289;BME280;24092;53.370;-6.588;2023-04-22T02:36:36;100142.26;;;2.51;100.00
38289;BME280;24092;53.370;-6.588;2023-04-22T02:39:03;100138.49;;;1.96;100.00
38289;BME280;24092;53.370;-6.588;2023-04-22T02:41:30;100141.62;;;1.24;100.00
38289;BME280;24092;53.370;-6.588;2023-04-22T02:43:57;100139.96;;;1.82;100.00
38289;BME280;24092;53.370;-6.588;2023-04-22T02:46:25;100131.63;;;3.16;100.00
38289;BME280;24092;53.370;-6.588;2023-04-22T02:48:52;100131.27;;;2.57;100.00
38289;BME280;24092;53.370;-6.588;2023-04-22T02:51:19;100133.28;;;2.41;100.00
38289;BME280;24092;53.370;-6.588;2023-04-22T02:53:46;100133.25;;;2.89;100.00
38289;BME280;24092;53.370;-6.588;2023-04-22T02:56:13;100129.15;;;1.84;100.00
38289;BME280;24092;53.370;-6.588;2023-04-22T02:58:40;100132.36;;;1.66;100.00
38289;BME280;24092;53.370;-6.588;2023-04-22T03:01:07;100125.34;;;2.18;100.00
38289;BME280;24092;53.370;-6.588;2023-04-22T03:03:34;100122.00;;;2.03;100.00
38289;BME280;24092;53.370;-6.588;2023-04-22T03:06:01;100121.50;;;2.29;100.00
38289;BME280;24092;53.370;-6.588;2023-04-22T03:08:27;100120.02;;;3.63;100.00
38289;BME280;24092;53.370;-6.588;2023-04-22T03:10:54;100116.71;;;2.61;100.00
38289;BME280;24092;53.370;-6.588;2023-04-22T03:13:21;100114.00;;;1.92;100.00
38289;BME280;24092;53.370;-6.588;2023-04-22T03:15:48;100111.31;;;2.51;100.00
38289;BME280;24092;53.370;-6.588;2023-04-22T03:18:16;100108.76;;;2.23;100.00
38289;BME280;24092;53.370;-6.588;2023-04-22T03:20:43;100106.17;;;0.96;100.00
38289;BME280;24092;53.370;-6.588;2023-04-22T03:23:10;100105.48;;;1.07;100.00
38289;BME280;24092;53.370;-6.588;2023-04-22T03:25:37;100099.00;;;1.77;100.00
38289;BME280;24092;53.370;-6.588;2023-04-22T03:28:04;100093.25;;;1.72;100.00
38289;BME280;24092;53.370;-6.588;2023-04-22T03:30:31;100090.09;;;1.51;100.00
38289;BME280;24092;53.370;-6.588;2023-04-22T03:32:58;100084.49;;;2.01;100.00
38289;BME280;24092;53.370;-6.588;2023-04-22T03:35:26;100079.75;;;2.30;100.00
38289;BME280;24092;53.370;-6.588;2023-04-22T03:37:53;100075.31;;;1.99;100.00
38289;BME280;24092;53.370;-6.588;2023-04-22T03:40:20;100067.34;;;1.31;100.00
38289;BME280;24092;53.370;-6.588;2023-04-22T03:42:47;100059.92;;;1.67;100.00
38289;BME280;24092;53.370;-6.588;2023-04-22T03:45:14;100059.02;;;1.35;100.00
38289;BME280;24092;53.370;-6.588;2023-04-22T03:47:41;100050.94;;;1.44;100.00
38289;BME280;24092;53.370;-6.588;2023-04-22T03:50:09;100049.66;;;1.50;100.00
38289;BME280;24092;53.370;-6.588;2023-04-22T03:52:37;100045.07;;;1.62;100.00
38289;BME280;24092;53.370;-6.588;2023-04-22T03:55:05;100045.24;;;1.85;100.00
38289;BME280;24092;53.370;-6.588;2023-04-22T03:57:32;100039.12;;;1.76;100.00
38289;BME280;24092;53.370;-6.588;2023-04-22T04:00:00;100036.66;;;1.61;100.00
38289;BME280;24092;53.370;-6.588;2023-04-22T04:02:26;100035.06;;;2.15;100.00
38289;BME280;24092;53.370;-6.588;2023-04-22T04:04:53;100029.40;;;1.56;100.00
38289;BME280;24092;53.370;-6.588;2023-04-22T04:07:20;100024.34;;;1.76;100.00
38289;BME280;24092;53.370;-6.588;2023-04-22T04:09:47;100025.48;;;1.21;100.00
38289;BME280;24092;53.370;-6.588;2023-04-22T04:12:15;100020.51;;;1.34;100.00
38289;BME280;24092;53.370;-6.588;2023-04-22T04:14:42;100021.45;;;0.58;100.00
38289;BME280;24092;53.370;-6.588;2023-04-22T04:17:09;100015.39;;;0.55;100.00
38289;BME280;24092;53.370;-6.588;2023-04-22T04:19:36;100011.29;;;2.64;100.00
38289;BME280;24092;53.370;-6.588;2023-04-22T04:22:04;100012.25;;;2.85;100.00
38289;BME280;24092;53.370;-6.588;2023-04-22T04:24:31;100010.15;;;2.01;100.00
38289;BME280;24092;53.370;-6.588;2023-04-22T04:26:58;100002.69;;;1.93;100.00
38289;BME280;24092;53.370;-6.588;2023-04-22T04:29:25;99998.60;;;1.81;100.00
38289;BME280;24092;53.370;-6.588;2023-04-22T04:31:53;99999.12;;;3.12;100.00
38289;BME280;24092;53.370;-6.588;2023-04-22T04:34:20;99987.38;;;2.45;100.00
38289;BME280;24092;53.370;-6.588;2023-04-22T04:36:48;99989.01;;;3.40;100.00
38289;BME280;24092;53.370;-6.588;2023-04-22T04:39:15;99985.71;;;1.93;100.00
38289;BME280;24092;53.370;-6.588;2023-04-22T04:41:42;99978.49;;;1.06;100.00
38289;BME280;24092;53.370;-6.588;2023-04-22T04:44:09;99975.16;;;3.69;100.00
38289;BME280;24092;53.370;-6.588;2023-04-22T04:46:37;99972.88;;;1.31;100.00
38289;BME280;24092;53.370;-6.588;2023-04-22T04:49:04;99974.17;;;0.65;100.00
38289;BME280;24092;53.370;-6.588;2023-04-22T04:51:31;99969.51;;;1.91;100.00
38289;BME280;24092;53.370;-6.588;2023-04-22T04:53:58;99963.14;;;2.30;100.00
38289;BME280;24092;53.370;-6.588;2023-04-22T04:56:25;99956.86;;;2.34;100.00
38289;BME280;24092;53.370;-6.588;2023-04-22T04:58:52;99949.89;;;1.92;100.00
38289;BME280;24092;53.370;-6.588;2023-04-22T05:01:20;99946.47;;;2.41;100.00
38289;BME280;24092;53.370;-6.588;2023-04-22T05:03:47;99939.85;;;1.55;100.00
38289;BME280;24092;53.370;-6.588;2023-04-22T05:06:14;99933.12;;;2.99;100.00
38289;BME280;24092;53.370;-6.588;2023-04-22T05:08:41;99937.01;;;3.02;100.00
38289;BME280;24092;53.370;-6.588;2023-04-22T05:11:09;99927.37;;;3.67;100.00
38289;BME280;24092;53.370;-6.588;2023-04-22T05:13:36;99925.90;;;3.92;100.00
38289;BME280;24092;53.370;-6.588;2023-04-22T05:16:04;99931.33;;;2.40;100.00
38289;BME280;24092;53.370;-6.588;2023-04-22T05:18:31;99934.10;;;1.75;100.00
38289;BME280;24092;53.370;-6.588;2023-04-22T05:20:59;99936.68;;;2.05;100.00
38289;BME280;24092;53.370;-6.588;2023-04-22T05:23:26;99933.89;;;4.02;100.00
38289;BME280;24092;53.370;-6.588;2023-04-22T05:25:53;99936.90;;;2.38;100.00
38289;BME280;24092;53.370;-6.588;2023-04-22T05:28:19;99934.74;;;3.00;100.00
38289;BME280;24092;53.370;-6.588;2023-04-22T05:30:47;99933.88;;;3.43;100.00
38289;BME280;24092;53.370;-6.588;2023-04-22T05:33:14;99942.85;;;1.39;100.00
38289;BME280;24092;53.370;-6.588;2023-04-22T05:35:41;99945.77;;;1.96;100.00
38289;BME280;24092;53.370;-6.588;2023-04-22T05:38:08;99941.35;;;1.60;100.00
38289;BME280;24092;53.370;-6.588;2023-04-22T05:40:35;99930.82;;;3.79;100.00
38289;BME280;24092;53.370;-6.588;2023-04-22T05:43:03;99922.12;;;3.92;100.00
38289;BME280;24092;53.370;-6.588;2023-04-22T05:45:30;99922.24;;;4.06;100.00
38289;BME280;24092;53.370;-6.588;2023-04-22T05:47:57;99915.30;;;2.76;100.00
38289;BME280;24092;53.370;-6.588;2023-04-22T05:50:24;99916.45;;;3.85;100.00
38289;BME280;24092;53.370;-6.588;2023-04-22T05:52:52;99917.70;;;3.11;100.00
38289;BME280;24092;53.370;-6.588;2023-04-22T05:55:19;99923.18;;;2.77;100.00
38289;BME280;24092;53.370;-6.588;2023-04-22T05:57:46;99923.78;;;3.24;100.00
38289;BME280;24092;53.370;-6.588;2023-04-22T06:00:15;99926.45;;;3.09;100.00
38289;BME280;24092;53.370;-6.588;2023-04-22T06:02:42;99925.26;;;4.67;100.00
38289;BME280;24092;53.370;-6.588;2023-04-22T06:05:10;99919.54;;;5.60;100.00
38289;BME280;24092;53.370;-6.588;2023-04-22T06:07:37;99923.74;;;4.17;100.00
38289;BME280;24092;53.370;-6.588;2023-04-22T06:10:05;99920.36;;;4.18;100.00
38289;BME280;24092;53.370;-6.588;2023-04-22T06:12:32;99919.60;;;3.58;100.00
38289;BME280;24092;53.370;-6.588;2023-04-22T06:15:00;99923.53;;;2.45;100.00
38289;BME280;24092;53.370;-6.588;2023-04-22T06:17:27;99925.00;;;2.06;100.00
38289;BME280;24092;53.370;-6.588;2023-04-22T06:19:55;99920.22;;;1.81;100.00
38289;BME280;24092;53.370;-6.588;2023-04-22T06:22:22;99914.46;;;1.45;100.00
38289;BME280;24092;53.370;-6.588;2023-04-22T06:24:50;99908.83;;;1.72;100.00
38289;BME280;24092;53.370;-6.588;2023-04-22T06:27:17;99901.79;;;3.63;100.00
38289;BME280;24092;53.370;-6.588;2023-04-22T06:29:44;99895.97;;;3.39;100.00
38289;BME280;24092;53.370;-6.588;2023-04-22T06:32:11;99896.87;;;1.72;100.00
38289;BME280;24092;53.370;-6.588;2023-04-22T06:34:38;99895.26;;;2.42;100.00
38289;BME280;24092;53.370;-6.588;2023-04-22T06:37:05;99894.69;;;1.65;100.00
38289;BME280;24092;53.370;-6.588;2023-04-22T06:39:32;99895.24;;;1.90;100.00
38289;BME280;24092;53.370;-6.588;2023-04-22T06:42:00;99896.54;;;1.82;100.00
38289;BME280;24092;53.370;-6.588;2023-04-22T06:44:27;99894.31;;;1.34;100.00
38289;BME280;24092;53.370;-6.588;2023-04-22T06:46:54;99894.73;;;1.14;100.00
38289;BME280;24092;53.370;-6.588;2023-04-22T06:49:21;99892.24;;;1.55;100.00
38289;BME280;24092;53.370;-6.588;2023-04-22T06:51:48;99889.09;;;3.82;100.00
38289;BME280;24092;53.370;-6.588;2023-04-22T06:54:15;99893.39;;;1.65;100.00
38289;BME280;24092;53.370;-6.588;2023-04-22T06:56:42;99890.31;;;1.28;100.00
38289;BME280;24092;53.370;-6.588;2023-04-22T06:59:10;99891.97;;;1.68;100.00
38289;BME280;24092;53.370;-6.588;2023-04-22T07:01:37;99891.24;;;2.29;100.00
38289;BME280;24092;53.370;-6.588;2023-04-22T07:04:04;99887.08;;;1.93;100.00
38289;BME280;24092;53.370;-6.588;2023-04-22T07:06:31;99880.33;;;1.82;100.00
38289;BME280;24092;53.370;-6.588;2023-04-22T07:08:59;99872.55;;;1.21;100.00
38289;BME280;24092;53.370;-6.588;2023-04-22T07:11:26;99871.41;;;0.96;100.00
38289;BME280;24092;53.370;-6.588;2023-04-22T07:13:53;99874.01;;;1.95;100.00
38289;BME280;24092;53.370;-6.588;2023-04-22T07:16:20;99875.09;;;2.38;100.00
38289;BME280;24092;53.370;-6.588;2023-04-22T07:18:47;99871.62;;;2.20;100.00
38289;BME280;24092;53.370;-6.588;2023-04-22T07:21:14;99871.04;;;1.83;100.00
38289;BME280;24092;53.370;-6.588;2023-04-22T07:23:41;99874.80;;;2.16;100.00
38289;BME280;24092;53.370;-6.588;2023-04-22T07:26:08;99870.26;;;0.95;100.00
38289;BME280;24092;53.370;-6.588;2023-04-22T07:28:35;99876.29;;;1.83;100.00
38289;BME280;24092;53.370;-6.588;2023-04-22T07:33:05;99862.69;;;0.70;100.00
38289;BME280;24092;53.370;-6.588;2023-04-22T07:35:32;99860.66;;;0.36;100.00
38289;BME280;24092;53.370;-6.588;2023-04-22T07:37:59;99862.47;;;1.04;100.00
38289;BME280;24092;53.370;-6.588;2023-04-22T07:40:26;99863.25;;;1.42;100.00
38289;BME280;24092;53.370;-6.588;2023-04-22T07:42:53;99862.24;;;1.85;100.00
38289;BME280;24092;53.370;-6.588;2023-04-22T07:45:20;99862.07;;;0.41;100.00
38289;BME280;24092;53.370;-6.588;2023-04-22T07:47:47;99858.18;;;1.10;100.00
38289;BME280;24092;53.370;-6.588;2023-04-22T07:50:14;99858.77;;;1.20;100.00
38289;BME280;24092;53.370;-6.588;2023-04-22T07:52:41;99853.76;;;1.94;100.00
38289;BME280;24092;53.370;-6.588;2023-04-22T07:55:08;99847.98;;;1.66;100.00
38289;BME280;24092;53.370;-6.588;2023-04-22T07:57:35;99844.75;;;1.03;100.00
38289;BME280;24092;53.370;-6.588;2023-04-22T08:00:02;99844.08;;;2.05;100.00
38289;BME280;24092;53.370;-6.588;2023-04-22T08:02:29;99842.76;;;-0.04;100.00
38289;BME280;24092;53.370;-6.588;2023-04-22T08:04:56;99843.25;;;1.43;100.00
38289;BME280;24092;53.370;-6.588;2023-04-22T08:07:24;99841.54;;;0.78;100.00
38289;BME280;24092;53.370;-6.588;2023-04-22T08:09:51;99840.72;;;2.18;100.00
38289;BME280;24092;53.370;-6.588;2023-04-22T08:12:18;99832.64;;;0.92;100.00
38289;BME280;24092;53.370;-6.588;2023-04-22T08:14:44;99829.25;;;1.45;100.00
38289;BME280;24092;53.370;-6.588;2023-04-22T08:17:11;99822.17;;;0.81;100.00
38289;BME280;24092;53.370;-6.588;2023-04-22T08:19:38;99824.08;;;1.79;100.00
38289;BME280;24092;53.370;-6.588;2023-04-22T08:22:05;99818.22;;;1.54;100.00
38289;BME280;24092;53.370;-6.588;2023-04-22T08:24:32;99817.91;;;1.98;100.00
38289;BME280;24092;53.370;-6.588;2023-04-22T08:26:59;99809.52;;;3.79;100.00
38289;BME280;24092;53.370;-6.588;2023-04-22T08:29:26;99808.90;;;4.30;100.00
38289;BME280;24092;53.370;-6.588;2023-04-22T08:31:53;99817.32;;;1.33;100.00
38289;BME280;24092;53.370;-6.588;2023-04-22T08:34:20;99810.39;;;4.32;100.00
38289;BME280;24092;53.370;-6.588;2023-04-22T08:36:47;99813.34;;;1.65;100.00
38289;BME280;24092;53.370;-6.588;2023-04-22T08:39:14;99811.24;;;2.09;100.00
38289;BME280;24092;53.370;-6.588;2023-04-22T08:41:43;99812.13;;;0.96;100.00
38289;BME280;24092;53.370;-6.588;2023-04-22T08:44:11;99813.28;;;2.18;100.00
38289;BME280;24092;53.370;-6.588;2023-04-22T08:46:40;99808.37;;;1.96;100.00
38289;BME280;24092;53.370;-6.588;2023-04-22T08:49:10;99806.87;;;1.63;100.00
38289;BME280;24092;53.370;-6.588;2023-04-22T08:51:38;99800.66;;;1.48;100.00
38289;BME280;24092;53.370;-6.588;2023-04-22T08:54:05;99795.53;;;1.90;100.00
38289;BME280;24092;53.370;-6.588;2023-04-22T08:56:33;99790.07;;;1.19;100.00
38289;BME280;24092;53.370;-6.588;2023-04-22T08:59:02;99785.93;;;1.16;100.00
38289;BME280;24092;53.370;-6.588;2023-04-22T09:01:30;99784.87;;;1.30;100.00
38289;BME280;24092;53.370;-6.588;2023-04-22T09:03:58;99789.63;;;1.50;100.00
38289;BME280;24092;53.370;-6.588;2023-04-22T09:06:26;99783.80;;;1.56;100.00
38289;BME280;24092;53.370;-6.588;2023-04-22T09:08:53;99778.44;;;2.68;100.00
38289;BME280;24092;53.370;-6.588;2023-04-22T09:11:20;99775.32;;;3.23;100.00
38289;BME280;24092;53.370;-6.588;2023-04-22T09:13:47;99773.90;;;2.64;100.00
38289;BME280;24092;53.370;-6.588;2023-04-22T09:16:14;99770.98;;;3.79;100.00
38289;BME280;24092;53.370;-6.588;2023-04-22T09:18:42;99770.39;;;3.84;100.00
38289;BME280;24092;53.370;-6.588;2023-04-22T09:21:10;99769.06;;;3.35;100.00
38289;BME280;24092;53.370;-6.588;2023-04-22T09:23:45;99769.19;;;2.46;100.00
38289;BME280;24092;53.370;-6.588;2023-04-22T09:26:12;99772.17;;;2.23;100.00
38289;BME280;24092;53.370;-6.588;2023-04-22T09:28:48;99768.47;;;1.64;100.00
38289;BME280;24092;53.370;-6.588;2023-04-22T09:31:16;99760.39;;;3.04;100.00
38289;BME280;24092;53.370;-6.588;2023-04-22T09:33:47;99762.06;;;1.84;100.00
38289;BME280;24092;53.370;-6.588;2023-04-22T09:36:14;99760.55;;;1.90;100.00
38289;BME280;24092;53.370;-6.588;2023-04-22T09:38:51;99761.76;;;1.54;100.00
38289;BME280;24092;53.370;-6.588;2023-04-22T09:41:25;99758.05;;;2.02;100.00
38289;BME280;24092;53.370;-6.588;2023-04-22T09:43:53;99754.57;;;3.40;100.00
38289;BME280;24092;53.370;-6.588;2023-04-22T09:46:21;99751.71;;;2.08;100.00
38289;BME280;24092;53.370;-6.588;2023-04-22T09:48:49;99747.50;;;3.21;100.00
38289;BME280;24092;53.370;-6.588;2023-04-22T09:51:17;99746.54;;;4.44;100.00
38289;BME280;24092;53.370;-6.588;2023-04-22T09:53:44;99753.83;;;1.52;100.00
38289;BME280;24092;53.370;-6.588;2023-04-22T09:56:11;99750.44;;;2.17;100.00
38289;BME280;24092;53.370;-6.588;2023-04-22T09:58:38;99746.98;;;2.20;100.00
38289;BME280;24092;53.370;-6.588;2023-04-22T10:01:05;99749.41;;;2.77;100.00
38289;BME280;24092;53.370;-6.588;2023-04-22T10:03:32;99745.67;;;2.25;100.00
38289;BME280;24092;53.370;-6.588;2023-04-22T10:05:59;99746.49;;;3.18;100.00
38289;BME280;24092;53.370;-6.588;2023-04-22T10:08:26;99744.22;;;3.51;100.00
38289;BME280;24092;53.370;-6.588;2023-04-22T10:10:53;99746.88;;;2.23;100.00
38289;BME280;24092;53.370;-6.588;2023-04-22T10:13:21;99749.71;;;2.62;100.00
38289;BME280;24092;53.370;-6.588;2023-04-22T10:15:50;99744.94;;;2.54;100.00
38289;BME280;24092;53.370;-6.588;2023-04-22T10:18:21;99745.05;;;3.20;100.00
38289;BME280;24092;53.370;-6.588;2023-04-22T10:20:50;99738.96;;;4.36;100.00
38289;BME280;24092;53.370;-6.588;2023-04-22T10:23:19;99740.45;;;3.12;100.00
38289;BME280;24092;53.370;-6.588;2023-04-22T10:25:47;99740.16;;;4.01;100.00
38289;BME280;24092;53.370;-6.588;2023-04-22T10:28:15;99741.48;;;7.47;100.00
38289;BME280;24092;53.370;-6.588;2023-04-22T10:30:43;99748.24;;;8.25;100.00
38289;BME280;24092;53.370;-6.588;2023-04-22T10:33:42;99745.04;;;8.01;100.00
38289;BME280;24092;53.370;-6.588;2023-04-22T10:36:14;99745.47;;;8.61;100.00
38289;BME280;24092;53.370;-6.588;2023-04-22T10:39:15;99745.57;;;7.80;100.00
38289;BME280;24092;53.370;-6.588;2023-04-22T10:41:50;99744.68;;;7.03;100.00
38289;BME280;24092;53.370;-6.588;2023-04-22T10:44:18;99742.27;;;7.21;100.00
38289;BME280;24092;53.370;-6.588;2023-04-22T10:47:01;99741.84;;;6.43;100.00
38289;BME280;24092;53.370;-6.588;2023-04-22T10:49:30;99737.85;;;5.72;100.00
38289;BME280;24092;53.370;-6.588;2023-04-22T10:51:58;99738.22;;;5.61;100.00
38289;BME280;24092;53.370;-6.588;2023-04-22T10:54:59;99741.61;;;5.07;100.00
38289;BME280;24092;53.370;-6.588;2023-04-22T10:57:33;99739.95;;;5.82;100.00
38289;BME280;24092;53.370;-6.588;2023-04-22T11:00:02;99738.22;;;5.61;100.00
38289;BME280;24092;53.370;-6.588;2023-04-22T11:02:43;99743.31;;;5.40;100.00
38289;BME280;24092;53.370;-6.588;2023-04-22T11:05:18;99742.16;;;5.70;100.00
38289;BME280;24092;53.370;-6.588;2023-04-22T11:07:47;99743.47;;;6.18;100.00
38289;BME280;24092;53.370;-6.588;2023-04-22T11:10:30;99742.16;;;4.65;100.00
38289;BME280;24092;53.370;-6.588;2023-04-22T11:12:57;99741.78;;;4.62;100.00
38289;BME280;24092;53.370;-6.588;2023-04-22T11:15:24;99738.58;;;4.45;100.00
38289;BME280;24092;53.370;-6.588;2023-04-22T11:17:52;99738.06;;;4.36;100.00
38289;BME280;24092;53.370;-6.588;2023-04-22T11:20:20;99736.85;;;4.37;100.00
38289;BME280;24092;53.370;-6.588;2023-04-22T11:22:51;99737.09;;;4.24;100.00
38289;BME280;24092;53.370;-6.588;2023-04-22T11:25:18;99739.39;;;4.51;100.00
38289;BME280;24092;53.370;-6.588;2023-04-22T11:27:46;99739.39;;;4.13;100.00
38289;BME280;24092;53.370;-6.588;2023-04-22T11:30:15;99740.56;;;3.72;100.00
38289;BME280;24092;53.370;-6.588;2023-04-22T11:32:44;99738.35;;;4.44;100.00
38289;BME280;24092;53.370;-6.588;2023-04-22T11:35:12;99737.90;;;3.82;100.00
38289;BME280;24092;53.370;-6.588;2023-04-22T11:37:41;99736.78;;;4.70;100.00
38289;BME280;24092;53.370;-6.588;2023-04-22T11:40:10;99737.64;;;4.36;100.00
38289;BME280;24092;53.370;-6.588;2023-04-22T11:42:38;99731.51;;;4.08;100.00
38289;BME280;24092;53.370;-6.588;2023-04-22T11:45:07;99731.04;;;4.44;100.00
38289;BME280;24092;53.370;-6.588;2023-04-22T11:47:35;99729.68;;;4.09;100.00
38289;BME280;24092;53.370;-6.588;2023-04-22T11:50:05;99728.05;;;3.71;100.00
38289;BME280;24092;53.370;-6.588;2023-04-22T11:52:42;99730.02;;;4.95;100.00
38289;BME280;24092;53.370;-6.588;2023-04-22T11:55:10;99725.96;;;4.83;100.00
38289;BME280;24092;53.370;-6.588;2023-04-22T11:57:38;99729.89;;;4.93;100.00
38289;BME280;24092;53.370;-6.588;2023-04-22T12:00:09;99729.32;;;5.07;100.00
38289;BME280;24092;53.370;-6.588;2023-04-22T12:02:37;99728.30;;;5.37;100.00
38289;BME280;24092;53.370;-6.588;2023-04-22T12:05:08;99732.12;;;6.26;100.00
38289;BME280;24092;53.370;-6.588;2023-04-22T12:07:36;99730.08;;;5.76;100.00
38289;BME280;24092;53.370;-6.588;2023-04-22T12:10:04;99729.13;;;5.60;100.00
38289;BME280;24092;53.370;-6.588;2023-04-22T12:12:32;99728.26;;;5.44;100.00
38289;BME280;24092;53.370;-6.588;2023-04-22T12:15:07;99728.92;;;5.43;100.00
38289;BME280;24092;53.370;-6.588;2023-04-22T12:17:34;99724.03;;;4.75;100.00
38289;BME280;24092;53.370;-6.588;2023-04-22T12:20:02;99722.51;;;5.50;100.00
38289;BME280;24092;53.370;-6.588;2023-04-22T12:22:29;99725.53;;;5.71;100.00
38289;BME280;24092;53.370;-6.588;2023-04-22T12:24:58;99727.63;;;4.71;100.00
38289;BME280;24092;53.370;-6.588;2023-04-22T12:27:25;99726.76;;;4.56;100.00
38289;BME280;24092;53.370;-6.588;2023-04-22T12:29:53;99725.40;;;5.21;100.00
38289;BME280;24092;53.370;-6.588;2023-04-22T12:32:22;99726.86;;;5.62;100.00
38289;BME280;24092;53.370;-6.588;2023-04-22T12:34:50;99728.12;;;5.35;100.00
38289;BME280;24092;53.370;-6.588;2023-04-22T12:37:18;99725.70;;;5.35;100.00
38289;BME280;24092;53.370;-6.588;2023-04-22T12:39:46;99724.09;;;4.74;100.00
38289;BME280;24092;53.370;-6.588;2023-04-22T12:42:13;99726.81;;;5.24;100.00
38289;BME280;24092;53.370;-6.588;2023-04-22T12:44:40;99727.75;;;5.27;100.00
38289;BME280;24092;53.370;-6.588;2023-04-22T12:47:07;99726.03;;;5.08;100.00
38289;BME280;24092;53.370;-6.588;2023-04-22T12:49:34;99723.02;;;4.99;100.00
38289;BME280;24092;53.370;-6.588;2023-04-22T12:52:01;99724.43;;;5.40;100.00